Time;durP1;ratioP1;P1;durP2;ratioP2;P2;SDS_P1;SDS_P2;PMS_P1;PMS_P2;Temp;Humidity;BMP_temperature;BMP_pressure;BME280_temperature;BME280_humidity;BME280_pressure;Samples;Min_cycle;Max_cycle;Signal;HPM_P1;HPM_P2
2022/09/06 00:02:18;;;;;;;6.33;5.10;;;;;;;5.03;74.90;100842.22;1702855;83;21191;-60
2022/09/06 00:04:44;;;;;;;12.20;5.97;;;;;;;5.03;75.12;100837.04;1702257;83;20913;-60
2022/09/06 00:07:11;;;;;;;10.82;6.80;;;;;;;5.08;75.33;100833.99;1693574;83;21025;-60
2022/09/06 00:09:37;;;;;;;9.05;5.87;;;;;;;5.10;75.46;100834.84;1682388;83;20990;-60
2022/09/06 00:12:04;;;;;;;9.00;6.33;;;;;;;5.14;75.46;100833.94;1710331;82;21554;-60
2022/09/06 00:14:31;;;;;;;12.43;8.15;;;;;;;5.20;75.64;100828.30;1699310;83;21066;-59
2022/09/06 00:16:58;;;;;;;15.28;8.98;;;;;;;5.22;75.64;100835.62;1704623;82;20934;-60
2022/09/06 00:19:24;;;;;;;13.30;8.50;;;;;;;5.24;75.66;100821.80;1703408;82;21501;-60
2022/09/06 00:21:51;;;;;;;14.57;7.70;;;;;;;5.28;75.73;100827.81;1694109;83;20946;-60
2022/09/06 00:24:18;;;;;;;16.50;8.18;;;;;;;5.32;75.77;100829.48;1698081;83;20921;-61
2022/09/06 00:26:44;;;;;;;10.38;6.97;;;;;;;5.33;75.84;100828.63;1686085;83;21038;-59
2022/09/06 00:29:11;;;;;;;13.10;7.67;;;;;;;5.31;75.83;100831.22;1714187;81;20930;-60
2022/09/06 00:31:37;;;;;;;10.98;6.72;;;;;;;5.30;75.89;100828.66;1718446;83;20914;-60
2022/09/06 00:34:04;;;;;;;9.90;6.05;;;;;;;5.30;75.90;100826.08;1710594;82;20930;-59
2022/09/06 00:36:31;;;;;;;15.78;6.45;;;;;;;5.31;75.94;100822.59;1695309;83;20905;-60
2022/09/06 00:38:57;;;;;;;11.37;6.57;;;;;;;5.33;76.06;100826.05;1708375;83;21043;-60
2022/09/06 00:41:24;;;;;;;9.50;5.70;;;;;;;5.32;76.00;100821.72;1689663;84;20950;-60
2022/09/06 00:43:51;;;;;;;14.23;6.70;;;;;;;5.33;76.09;100824.31;1688590;83;20952;-59
2022/09/06 00:46:22;;;;;;;9.63;6.45;;;;;;;5.31;76.05;100829.08;1690574;83;21980;-60
2022/09/06 00:48:54;;;;;;;12.40;6.28;;;;;;;5.27;76.07;100829.55;1690144;83;20962;-60
2022/09/06 00:51:24;;;;;;;8.53;6.37;;;;;;;5.26;76.10;100824.36;1687178;83;20982;-60
2022/09/06 00:53:51;;;;;;;16.23;7.87;;;;;;;5.25;76.18;100833.87;1686487;84;20895;-60
2022/09/06 00:56:18;;;;;;;13.95;6.75;;;;;;;5.27;76.35;100826.10;1711613;83;20979;-60
2022/09/06 00:58:46;;;;;;;12.60;7.85;;;;;;;5.33;76.56;100822.16;1692761;84;20983;-60
2022/09/06 01:01:13;;;;;;;10.85;6.95;;;;;;;5.41;76.68;100821.66;1687345;84;20950;-60
2022/09/06 01:03:39;;;;;;;12.65;7.50;;;;;;;5.49;76.79;100821.16;1688005;84;21622;-60
2022/09/06 01:06:48;;;;;;;16.37;7.20;;;;;;;5.54;76.80;100819.36;1687725;83;20919;-60
2022/09/06 01:09:28;;;;;;;10.28;7.35;;;;;;;5.58;76.83;100821.07;1685643;84;20940;-61
2022/09/06 01:12:17;;;;;;;12.95;8.25;;;;;;;5.60;76.83;100825.81;1691512;83;21002;-59
2022/09/06 01:15:14;;;;;;;17.45;7.90;;;;;;;5.63;76.88;100826.63;1712642;83;20985;-60
2022/09/06 01:18:13;;;;;;;10.78;6.80;;;;;;;5.68;77.00;100822.27;1697389;83;21088;-59
2022/09/06 01:21:13;;;;;;;13.30;7.15;;;;;;;5.70;77.09;100821.39;1693983;83;20906;-60
2022/09/06 01:24:08;;;;;;;9.33;5.92;;;;;;;5.76;77.23;100812.69;1703363;83;20930;-59
2022/09/06 01:27:00;;;;;;;11.35;6.12;;;;;;;5.81;77.29;100814.36;1698399;83;20875;-60
2022/09/06 01:29:35;;;;;;;7.97;5.65;;;;;;;5.87;77.33;100819.06;1627389;86;21010;-60
2022/09/06 01:32:41;;;;;;;8.15;4.90;;;;;;;5.89;77.40;100809.11;1624607;86;21622;-60
2022/09/06 01:35:38;;;;;;;10.88;5.90;;;;;;;5.93;77.43;100805.63;1627328;86;21003;-60
2022/09/06 01:38:07;;;;;;;9.63;5.00;;;;;;;5.96;77.56;100806.88;1626098;86;20965;-60
2022/09/06 01:40:35;;;;;;;6.78;4.50;;;;;;;6.03;77.79;100804.66;1628389;87;20954;-60
2022/09/06 01:43:05;;;;;;;8.58;4.53;;;;;;;6.12;77.79;100805.43;1626129;87;20996;-60
2022/09/06 01:45:53;;;;;;;6.80;4.83;;;;;;;6.13;77.72;100805.39;1624471;87;21109;-60
2022/09/06 01:49:06;;;;;;;10.20;4.78;;;;;;;6.15;77.66;100819.66;1624989;86;21016;-60
2022/09/06 01:52:07;;;;;;;9.40;5.03;;;;;;;6.17;77.64;100821.80;1625439;87;20971;-60
2022/09/06 01:54:54;;;;;;;9.45;6.05;;;;;;;6.19;77.54;100814.84;1623624;87;20936;-60
2022/09/06 01:57:54;;;;;;;10.45;6.17;;;;;;;6.17;77.65;100815.31;1629049;87;21029;-60
2022/09/06 02:00:22;;;;;;;8.43;5.37;;;;;;;6.19;77.95;100810.95;1617117;86;21720;-60
2022/09/06 02:02:54;;;;;;;6.75;5.12;;;;;;;6.20;78.26;100813.98;1625148;87;20978;-60
2022/09/06 02:05:38;;;;;;;9.78;5.03;;;;;;;6.21;78.33;100807.91;1622348;87;20981;-60
2022/09/06 02:08:10;;;;;;;8.83;5.65;;;;;;;6.25;78.52;100807.86;1619839;87;21615;-60
2022/09/06 02:10:51;;;;;;;6.87;4.60;;;;;;;6.32;78.56;100811.23;1650238;85;20926;-60
2022/09/06 02:13:18;;;;;;;5.87;4.10;;;;;;;6.38;78.58;100807.25;1637658;86;21107;-60
2022/09/06 02:15:50;;;;;;;7.10;3.33;;;;;;;6.38;78.43;100810.29;1627234;87;20982;-60
2022/09/06 02:18:22;;;;;;;7.10;3.75;;;;;;;6.30;78.22;100805.19;1628136;86;21481;-61
2022/09/06 02:20:52;;;;;;;4.47;2.87;;;;;;;6.29;78.45;100803.48;1633274;87;20983;-60
2022/09/06 02:23:23;;;;;;;3.70;2.70;;;;;;;6.34;78.58;100809.48;1647594;85;21536;-60
2022/09/06 02:25:57;;;;;;;6.37;3.85;;;;;;;6.33;78.57;100811.66;1624097;86;21847;-61
2022/09/06 02:28:25;;;;;;;10.53;3.20;;;;;;;6.30;78.47;100802.59;1639545;84;21007;-60
2022/09/06 02:31:01;;;;;;;4.90;2.87;;;;;;;6.31;78.68;100796.55;1651004;85;20974;-60
2022/09/06 02:33:31;;;;;;;5.35;3.12;;;;;;;6.29;78.66;100804.78;1649644;86;21001;-60
2022/09/06 02:36:02;;;;;;;4.45;2.72;;;;;;;6.20;78.65;100799.27;1652206;85;20966;-60
2022/09/06 02:38:32;;;;;;;9.05;3.15;;;;;;;6.17;78.64;100799.76;1629968;86;21340;-60
2022/09/06 02:41:00;;;;;;;4.20;3.05;;;;;;;6.11;78.71;100797.25;1653208;85;21494;-61
2022/09/06 02:43:26;;;;;;;4.60;2.90;;;;;;;6.14;78.89;100803.69;1651830;85;21519;-60
2022/09/06 02:45:53;;;;;;;4.28;2.92;;;;;;;6.12;78.90;100792.47;1677609;83;20938;-60
2022/09/06 02:48:19;;;;;;;5.42;2.60;;;;;;;6.15;79.15;100793.72;1676694;84;20926;-60
2022/09/06 02:50:46;;;;;;;6.62;2.98;;;;;;;6.14;79.08;100791.57;1679042;84;21461;-60
2022/09/06 02:53:14;;;;;;;4.22;2.65;;;;;;;6.13;79.05;100793.73;1680301;83;20943;-60
2022/09/06 02:55:41;;;;;;;5.37;3.20;;;;;;;6.11;79.04;100793.36;1681723;84;20950;-60
2022/09/06 02:58:10;;;;;;;5.12;3.00;;;;;;;6.09;79.19;100793.80;1673200;84;20958;-60
2022/09/06 03:00:37;;;;;;;7.53;3.55;;;;;;;6.02;79.12;100792.58;1678666;84;20925;-59
2022/09/06 03:03:04;;;;;;;5.78;3.83;;;;;;;5.98;79.19;100792.17;1697389;82;21058;-60
2022/09/06 03:05:31;;;;;;;4.58;3.37;;;;;;;5.98;79.37;100793.48;1702593;82;20918;-60
2022/09/06 03:07:58;;;;;;;7.65;4.00;;;;;;;6.00;79.59;100799.52;1700181;82;22754;-60
2022/09/06 03:10:25;;;;;;;5.57;3.63;;;;;;;5.98;79.59;100802.55;1673702;84;21538;-60
2022/09/06 03:12:52;;;;;;;5.42;3.22;;;;;;;5.96;79.57;100802.14;1691530;82;20922;-61
2022/09/06 03:15:19;;;;;;;4.53;3.55;;;;;;;5.92;79.54;100797.84;1664995;83;21056;-60
2022/09/06 03:17:46;;;;;;;7.92;3.90;;;;;;;5.87;79.56;100794.00;1703261;82;21028;-60
2022/09/06 03:20:13;;;;;;;5.60;3.70;;;;;;;5.90;79.81;100808.22;1692557;84;21085;-60
2022/09/06 03:22:40;;;;;;;6.33;3.53;;;;;;;5.94;79.80;100799.58;1672538;84;21092;-60
2022/09/06 03:25:08;;;;;;;5.83;3.30;;;;;;;5.95;79.79;100793.52;1674534;85;20903;-60
2022/09/06 03:27:35;;;;;;;7.17;4.03;;;;;;;5.99;79.92;100790.03;1656334;84;21063;-60
2022/09/06 03:30:04;;;;;;;5.90;4.00;;;;;;;6.00;79.82;100794.33;1678150;83;20964;-60
2022/09/06 03:32:30;;;;;;;6.40;4.12;;;;;;;5.98;79.83;100786.99;1695855;83;20978;-60
2022/09/06 03:34:58;;;;;;;6.78;4.35;;;;;;;5.98;79.84;100790.03;1692947;83;21555;-60
2022/09/06 03:37:24;;;;;;;13.50;4.90;;;;;;;5.99;80.02;100787.44;1687832;83;20944;-60
2022/09/06 03:39:51;;;;;;;9.17;4.97;;;;;;;6.05;80.20;100796.44;1693271;82;21888;-60
2022/09/06 03:42:17;;;;;;;6.92;4.50;;;;;;;6.10;80.31;100794.20;1688780;83;21688;-60
2022/09/06 03:44:44;;;;;;;9.48;4.20;;;;;;;6.20;80.51;100793.23;1691178;82;21018;-60
2022/09/06 03:47:11;;;;;;;13.15;4.67;;;;;;;6.33;80.74;100794.80;1689995;83;20931;-60
2022/09/06 03:49:38;;;;;;;11.63;5.55;;;;;;;6.38;80.40;100796.87;1690612;83;21044;-60
2022/09/06 03:52:05;;;;;;;11.48;4.30;;;;;;;6.42;80.50;100796.42;1699621;83;21064;-60
2022/09/06 03:54:31;;;;;;;5.78;3.40;;;;;;;6.46;80.50;100795.05;1714219;83;20946;-60
2022/09/06 03:56:58;;;;;;;5.10;3.67;;;;;;;6.49;80.54;100792.41;1705448;83;21547;-61
2022/09/06 03:59:24;;;;;;;6.03;3.00;;;;;;;6.62;81.04;100796.15;1692280;84;21022;-60
2022/09/06 04:01:53;;;;;;;4.00;2.42;;;;;;;6.81;81.39;100798.91;1688730;84;20986;-60
2022/09/06 04:04:19;;;;;;;4.58;2.90;;;;;;;7.01;81.53;100791.26;1714721;83;21174;-60
2022/09/06 04:06:46;;;;;;;7.78;2.70;;;;;;;7.17;81.59;100795.33;1687496;83;20946;-60
2022/09/06 04:09:13;;;;;;;2.95;2.27;;;;;;;7.32;81.54;100800.27;1689605;84;21721;-60
2022/09/06 04:11:40;;;;;;;3.05;2.10;;;;;;;7.46;81.54;100795.28;1686427;83;27310;-61
2022/09/06 04:14:07;;;;;;;3.95;2.10;;;;;;;7.61;81.73;100791.09;1689916;83;20959;-60
2022/09/06 04:16:33;;;;;;;1.95;1.52;;;;;;;7.78;81.81;100787.73;1697790;83;21965;-60
2022/09/06 04:19:02;;;;;;;4.30;1.62;;;;;;;7.94;81.78;100790.06;1685113;82;20899;-60
2022/09/06 04:21:30;;;;;;;1.12;0.82;;;;;;;8.10;81.91;100791.93;1705582;83;21047;-60
2022/09/06 04:23:56;;;;;;;2.62;1.17;;;;;;;8.25;82.07;100793.76;1707154;83;21720;-60
2022/09/06 04:26:23;;;;;;;1.00;0.85;;;;;;;8.42;82.19;100793.89;1691404;83;20982;-61
2022/09/06 04:28:50;;;;;;;3.80;2.17;;;;;;;8.56;82.24;100786.63;1697313;83;21072;-60
2022/09/06 04:31:16;;;;;;;11.60;3.00;;;;;;;8.65;81.90;100778.61;1710227;81;21484;-61
2022/09/06 04:33:43;;;;;;;24.18;4.72;;;;;;;8.65;81.74;100779.91;1687556;84;20978;-60
2022/09/06 04:36:11;;;;;;;18.17;3.30;;;;;;;8.60;81.37;100775.28;1721802;81;21057;-60
2022/09/06 04:38:41;;;;;;;18.98;4.20;;;;;;;8.54;81.40;100771.94;1702371;82;21605;-60
2022/09/06 04:41:10;;;;;;;13.90;3.00;;;;;;;8.59;81.72;100772.70;1684087;84;21168;-60
2022/09/06 04:43:37;;;;;;;9.25;3.05;;;;;;;8.67;82.04;100765.58;1696449;83;21000;-60
2022/09/06 04:46:11;;;;;;;8.80;2.40;;;;;;;8.80;82.22;100771.38;1703101;82;21056;-60
2022/09/06 04:48:37;;;;;;;11.28;2.75;;;;;;;8.91;82.19;100771.52;1689302;82;20953;-61
2022/09/06 04:51:04;;;;;;;11.65;3.45;;;;;;;9.02;82.04;100775.17;1702328;83;20994;-60
2022/09/06 04:53:31;;;;;;;2.13;1.20;;;;;;;9.08;82.19;100778.94;1713305;83;21890;-60
2022/09/06 04:55:58;;;;;;;17.73;2.65;;;;;;;9.16;82.27;100773.09;1697672;83;21543;-61
2022/09/06 04:58:25;;;;;;;9.03;2.92;;;;;;;9.29;82.29;100775.38;1718694;81;20918;-61
2022/09/06 05:00:52;;;;;;;10.30;2.50;;;;;;;9.32;82.05;100783.12;1714852;83;21030;-60
2022/09/06 05:03:18;;;;;;;7.95;2.45;;;;;;;9.37;82.22;100781.25;1691386;84;20978;-61
2022/09/06 05:05:45;;;;;;;6.05;2.20;;;;;;;9.51;82.52;100771.78;1717958;82;21096;-61
2022/09/06 05:08:11;;;;;;;12.23;2.00;;;;;;;9.68;82.63;100772.64;1715055;83;21049;-60
2022/09/06 05:10:38;;;;;;;4.33;1.93;;;;;;;9.82;82.66;100770.51;1693090;84;20936;-61
2022/09/06 05:13:05;;;;;;;6.45;2.05;;;;;;;9.95;82.66;100774.50;1694100;83;20930;-60
2022/09/06 05:15:32;;;;;;;1.77;1.67;;;;;;;10.07;82.66;100776.75;1687228;84;20946;-59
2022/09/06 05:18:04;;;;;;;3.95;1.90;;;;;;;10.17;82.51;100776.52;1690987;83;21077;-60
2022/09/06 05:20:31;;;;;;;5.30;2.08;;;;;;;10.21;82.48;100772.89;1696899;83;20947;-64
2022/09/06 05:22:57;;;;;;;2.25;1.77;;;;;;;10.31;82.64;100771.77;1703744;83;20945;-59
2022/09/06 05:25:24;;;;;;;3.03;2.10;;;;;;;10.40;82.40;100784.55;1687585;84;21032;-60
2022/09/06 05:27:51;;;;;;;7.80;2.10;;;;;;;10.45;82.50;100780.05;1695889;83;20947;-60
2022/09/06 05:30:18;;;;;;;4.42;2.30;;;;;;;10.60;82.67;100780.48;1686112;83;21090;-61
2022/09/06 05:32:45;;;;;;;3.35;1.82;;;;;;;10.73;82.79;100779.21;1687247;84;21100;-61
2022/09/06 05:35:12;;;;;;;2.45;1.60;;;;;;;10.88;82.77;100780.48;1699950;83;20978;-60
2022/09/06 05:37:39;;;;;;;3.70;1.82;;;;;;;11.02;82.78;100774.81;1714848;83;20931;-59
2022/09/06 05:40:08;;;;;;;2.27;1.40;;;;;;;11.20;82.88;100779.42;1707446;82;21501;-60
2022/09/06 05:42:35;;;;;;;5.00;2.55;;;;;;;11.41;83.11;100773.48;1708416;82;21061;-59
2022/09/06 05:45:02;;;;;;;2.43;1.23;;;;;;;11.66;83.02;100776.58;1689845;83;20954;-60
2022/09/06 05:47:33;;;;;;;1.50;0.90;;;;;;;11.89;82.84;100777.09;1692938;83;20947;-59
2022/09/06 05:49:58;;;;;;;1.52;1.10;;;;;;;12.14;82.90;100779.68;1711850;83;20901;-60
2022/09/06 05:52:25;;;;;;;;;;;;;;;12.35;82.79;100774.54;1689709;84;20911;-60
2022/09/06 05:54:52;;;;;;;2.10;1.00;;;;;;;12.60;82.91;100778.39;1689016;83;21179;-59
2022/09/06 05:57:18;;;;;;;1.98;0.90;;;;;;;12.83;82.74;100778.82;1705666;83;20986;-60
2022/09/06 05:59:45;;;;;;;4.50;0.80;;;;;;;12.99;82.50;100782.50;1708097;83;21002;-60
2022/09/06 06:02:11;;;;;;;1.83;1.00;;;;;;;13.13;82.33;100777.55;1712681;82;20985;-59
2022/09/06 06:04:38;;;;;;;1.35;0.68;;;;;;;13.20;82.09;100779.02;1710583;83;20986;-59
2022/09/06 06:07:05;;;;;;;2.05;0.82;;;;;;;13.31;82.19;100779.08;1695839;83;21042;-59
2022/09/06 06:09:32;;;;;;;1.95;0.60;;;;;;;13.37;82.04;100779.66;1703676;83;20903;-59
2022/09/06 06:11:59;;;;;;;1.60;0.78;;;;;;;13.43;81.75;100774.62;1685105;83;20909;-59
2022/09/06 06:14:26;;;;;;;2.10;0.68;;;;;;;13.46;81.65;100779.73;1695334;84;21504;-59
2022/09/06 06:16:53;;;;;;;0.88;0.42;;;;;;;13.49;81.27;100779.59;1691698;84;21937;-60
2022/09/06 06:19:19;;;;;;;0.30;0.30;;;;;;;13.59;81.47;100775.67;1676409;84;21063;-60
2022/09/06 06:21:46;;;;;;;0.80;0.40;;;;;;;13.76;81.44;100771.47;1707585;82;20967;-60
2022/09/06 06:24:16;;;;;;;3.10;0.50;;;;;;;13.92;81.37;100762.44;1681218;84;21657;-60
2022/09/06 06:26:42;;;;;;;0.85;0.37;;;;;;;14.03;81.17;100770.25;1693031;83;20954;-61
2022/09/06 06:29:09;;;;;;;0.60;0.40;;;;;;;14.10;80.74;100765.56;1694197;83;20902;-62
2022/09/06 06:31:37;;;;;;;0.50;0.33;;;;;;;14.18;80.62;100759.97;1695810;82;21155;-60
2022/09/06 06:34:04;;;;;;;0.62;0.40;;;;;;;14.25;80.58;100757.44;1690081;83;20927;-61
2022/09/06 06:36:33;;;;;;;0.50;0.30;;;;;;;14.43;80.50;100760.54;1684994;83;21466;-61
2022/09/06 06:39:03;;;;;;;1.65;0.80;;;;;;;14.66;79.95;100758.63;1681272;84;21037;-61
2022/09/06 06:41:31;;;;;;;1.67;0.50;;;;;;;14.71;79.65;100762.74;1697660;83;21579;-61
2022/09/06 06:44:01;;;;;;;1.20;0.70;;;;;;;14.81;79.62;100755.25;1690441;83;21006;-61
2022/09/06 06:46:31;;;;;;;2.58;0.90;;;;;;;14.85;79.04;100761.23;1690007;84;22444;-61
2022/09/06 06:48:57;;;;;;;2.92;1.02;;;;;;;14.94;79.28;100753.73;1695321;83;20965;-61
2022/09/06 06:51:31;;;;;;;3.42;1.60;;;;;;;15.08;78.82;100754.84;1701613;83;21512;-62
2022/09/06 06:53:58;;;;;;;4.12;1.32;;;;;;;15.07;78.54;100758.38;1698929;83;21069;-61
2022/09/06 06:56:31;;;;;;;3.60;1.02;;;;;;;15.29;79.56;100756.41;1681676;84;21611;-61
2022/09/06 06:59:01;;;;;;;1.98;0.60;;;;;;;15.76;79.54;100757.08;1696981;84;21512;-61
2022/09/06 07:01:30;;;;;;;1.25;0.47;;;;;;;16.29;78.73;100752.04;1686302;83;20943;-61
2022/09/06 07:03:58;;;;;;;1.37;0.70;;;;;;;16.88;78.39;100754.09;1693568;82;20911;-61
2022/09/06 07:06:26;;;;;;;3.00;0.70;;;;;;;17.09;77.35;100754.19;1697393;82;20950;-61
2022/09/06 07:08:55;;;;;;;0.98;0.53;;;;;;;17.22;76.63;100751.22;1694537;83;21108;-61
2022/09/06 07:11:21;;;;;;;0.57;0.50;;;;;;;17.24;76.37;100759.03;1701453;83;22298;-61
2022/09/06 07:13:48;;;;;;;1.47;0.57;;;;;;;17.08;76.14;100753.79;1695157;83;20935;-60
2022/09/06 07:16:23;;;;;;;4.20;0.75;;;;;;;16.90;75.58;100746.48;1700119;83;20886;-61
2022/09/06 07:18:52;;;;;;;3.35;0.95;;;;;;;16.67;74.50;100751.72;1677530;84;21033;-61
2022/09/06 07:21:25;;;;;;;2.65;0.78;;;;;;;16.37;74.64;100746.36;1676125;84;21071;-61
2022/09/06 07:23:54;;;;;;;2.92;0.60;;;;;;;16.28;74.79;100742.45;1676089;84;20921;-61
2022/09/06 07:26:25;;;;;;;5.97;0.80;;;;;;;16.22;74.58;100745.42;1700837;83;20934;-63
2022/09/06 07:28:57;;;;;;;2.50;0.78;;;;;;;16.12;73.56;100752.11;1715094;82;20955;-61
2022/09/06 07:31:24;;;;;;;2.55;0.65;;;;;;;16.07;74.12;100754.14;1712237;81;21527;-60
2022/09/06 07:33:52;;;;;;;4.90;1.20;;;;;;;16.14;73.78;100757.31;1687310;84;21104;-60
2022/09/06 07:36:18;;;;;;;3.35;0.70;;;;;;;16.02;72.81;100750.89;1700628;83;20986;-61
2022/09/06 07:38:49;;;;;;;1.65;0.45;;;;;;;15.91;73.10;100761.14;1703260;83;21058;-60
2022/09/06 07:41:18;;;;;;;4.90;0.80;;;;;;;15.99;73.20;100750.62;1683397;84;21464;-60
2022/09/06 07:43:45;;;;;;;;;;;;;;;16.18;73.21;100743.02;1676067;83;20996;-60
2022/09/06 07:46:15;;;;;;;0.98;0.70;;;;;;;16.19;71.85;100745.59;1695798;84;21118;-60
2022/09/06 07:48:45;;;;;;;0.57;0.40;;;;;;;16.22;72.01;100746.73;1694794;83;21053;-60
2022/09/06 07:51:18;;;;;;;1.90;0.50;;;;;;;16.25;71.50;100743.09;1689525;83;20971;-61
2022/09/06 07:53:50;;;;;;;2.12;0.50;;;;;;;16.21;71.05;100737.11;1693604;83;21499;-60
2022/09/06 07:56:19;;;;;;;0.98;0.50;;;;;;;16.19;70.12;100728.91;1686725;84;21476;-60
2022/09/06 07:58:45;;;;;;;1.25;0.53;;;;;;;16.21;69.85;100735.80;1688860;84;21105;-60
2022/09/06 08:01:34;;;;;;;1.02;0.40;;;;;;;16.10;69.16;100743.43;1692593;83;21532;-60
2022/09/06 08:04:05;;;;;;;1.95;0.53;;;;;;;16.08;69.44;100741.37;1688675;84;20974;-60
2022/09/06 08:06:34;;;;;;;1.92;0.80;;;;;;;16.19;68.94;100735.05;1712804;83;21495;-59
2022/09/06 08:09:01;;;;;;;2.25;0.70;;;;;;;16.35;69.27;100731.08;1685964;84;20975;-60
2022/09/06 08:11:31;;;;;;;1.85;0.60;;;;;;;16.38;69.07;100736.66;1712441;83;21044;-60
2022/09/06 08:13:59;;;;;;;0.40;0.30;;;;;;;16.53;68.38;100730.55;1697186;83;20910;-60
2022/09/06 08:16:28;;;;;;;0.75;0.40;;;;;;;16.61;67.82;100730.97;1688089;83;20911;-60
2022/09/06 08:18:58;;;;;;;1.65;0.42;;;;;;;16.63;65.97;100723.80;1670787;84;20946;-60
2022/09/06 08:21:27;;;;;;;0.40;0.40;;;;;;;16.64;67.03;100732.11;1686162;83;21515;-60
2022/09/06 08:24:00;;;;;;;2.37;0.60;;;;;;;16.73;66.07;100727.63;1698554;83;21055;-61
2022/09/06 08:26:30;;;;;;;2.45;0.50;;;;;;;16.77;65.34;100724.38;1698070;83;20949;-61
2022/09/06 08:29:04;;;;;;;0.68;0.40;;;;;;;16.73;65.03;100724.99;1690001;82;20950;-61
2022/09/06 08:31:33;;;;;;;1.07;0.70;;;;;;;16.78;65.56;100728.25;1682892;83;21100;-60
2022/09/06 08:34:00;;;;;;;4.47;0.78;;;;;;;16.80;65.11;100724.67;1714851;83;20984;-61
2022/09/06 08:36:29;;;;;;;0.95;0.30;;;;;;;16.75;64.69;100719.17;1698788;84;21129;-61
2022/09/06 08:38:59;;;;;;;0.72;0.40;;;;;;;16.87;65.04;100719.44;1707901;81;20985;-63
2022/09/06 08:42:02;;;;;;;1.87;0.40;;;;;;;17.13;63.46;100721.87;1716612;81;21120;-61
2022/09/06 08:44:37;;;;;;;0.65;0.40;;;;;;;17.22;63.97;100724.83;1700143;83;21479;-63
2022/09/06 08:47:11;;;;;;;0.80;0.50;;;;;;;17.33;63.42;100715.41;1700092;83;20895;-62
2022/09/06 08:49:46;;;;;;;1.47;0.40;;;;;;;17.19;62.57;100711.79;1706012;82;21085;-61
2022/09/06 08:52:26;;;;;;;0.50;0.33;;;;;;;17.21;63.07;100715.20;1716593;83;21427;-59
2022/09/06 08:55:22;;;;;;;0.57;0.37;;;;;;;17.16;62.24;100704.05;1700464;83;20978;-60
2022/09/06 08:58:27;;;;;;;0.40;0.20;;;;;;;17.08;61.03;100703.66;1713822;83;20978;-60
2022/09/06 09:00:59;;;;;;;0.33;0.25;;;;;;;17.14;61.17;100703.77;1715048;83;20990;-59
2022/09/06 09:03:36;;;;;;;1.90;0.30;;;;;;;17.08;60.51;100716.84;1695316;83;21697;-59
2022/09/06 09:06:08;;;;;;;0.40;0.30;;;;;;;16.98;60.53;100712.59;1724442;83;20997;-59
2022/09/06 09:09:04;;;;;;;0.50;0.20;;;;;;;17.02;60.24;100709.30;1701930;84;21487;-58
2022/09/06 09:11:34;;;;;;;0.53;0.40;;;;;;;17.00;59.66;100713.84;1702190;84;20882;-59
2022/09/06 09:14:06;;;;;;;0.45;0.20;;;;;;;17.15;59.98;100712.08;1696285;84;21728;-59
2022/09/06 09:16:33;;;;;;;0.98;0.30;;;;;;;17.23;59.52;100705.41;1690196;83;21087;-59
2022/09/06 09:19:03;;;;;;;1.65;0.50;;;;;;;17.30;59.53;100706.35;1697759;83;20966;-59
2022/09/06 09:21:35;;;;;;;1.05;0.50;;;;;;;17.39;58.76;100701.84;1689281;84;20989;-59
2022/09/06 09:24:06;;;;;;;3.10;0.40;;;;;;;17.38;58.33;100705.43;1745258;81;21547;-59
2022/09/06 09:27:05;;;;;;;0.20;0.20;;;;;;;17.38;58.29;100698.83;1747497;80;21021;-60
2022/09/06 09:29:31;;;;;;;0.88;0.40;;;;;;;17.39;57.78;100691.28;1743434;81;21090;-58
2022/09/06 09:31:58;;;;;;;0.57;0.37;;;;;;;17.44;57.63;100685.25;1745907;81;20927;-59
2022/09/06 09:34:37;;;;;;;1.12;0.60;;;;;;;17.52;57.05;100686.95;1751192;81;20895;-59
2022/09/06 09:37:26;;;;;;;0.62;0.20;;;;;;;17.47;56.47;100683.75;1716559;83;21524;-59
2022/09/06 09:39:55;;;;;;;1.30;0.40;;;;;;;17.29;56.40;100680.91;1667471;84;21952;-58
2022/09/06 09:42:29;;;;;;;1.42;0.55;;;;;;;17.29;55.90;100682.23;1689494;83;21038;-60
2022/09/06 09:44:56;;;;;;;2.15;0.70;;;;;;;17.28;56.02;100685.80;1705877;83;20919;-60
2022/09/06 09:47:29;;;;;;;0.95;0.30;;;;;;;17.12;55.74;100685.41;1697919;83;20997;-60
2022/09/06 09:49:57;;;;;;;1.50;0.40;;;;;;;16.94;54.94;100682.52;1689854;83;20942;-60
2022/09/06 09:52:31;;;;;;;2.85;0.37;;;;;;;16.80;55.44;100675.40;1708502;83;21453;-59
2022/09/06 09:55:01;;;;;;;0.72;0.40;;;;;;;17.01;55.17;100673.31;1693076;83;21693;-60
2022/09/06 09:57:45;;;;;;;3.20;0.40;;;;;;;17.17;55.27;100666.19;1697586;83;20959;-59
2022/09/06 10:00:13;;;;;;;1.72;0.30;;;;;;;17.34;54.94;100664.33;1693407;84;20938;-59
2022/09/06 10:02:41;;;;;;;5.00;0.42;;;;;;;17.45;55.02;100675.94;1669124;83;21470;-60
2022/09/06 10:05:16;;;;;;;0.70;0.40;;;;;;;17.42;54.71;100669.97;1705043;82;20930;-59
2022/09/06 10:07:49;;;;;;;1.57;0.30;;;;;;;17.54;53.92;100661.31;1699773;83;22385;-60
2022/09/06 10:10:29;;;;;;;1.20;0.35;;;;;;;17.51;53.52;100673.39;1703402;82;20987;-60
2022/09/06 10:13:09;;;;;;;2.75;0.60;;;;;;;17.31;53.23;100657.89;1669706;85;20973;-60
2022/09/06 10:15:39;;;;;;;1.15;0.33;;;;;;;17.16;53.02;100659.67;1691643;84;20962;-61
2022/09/06 10:18:29;;;;;;;1.40;0.88;;;;;;;17.16;52.29;100660.99;1693586;83;20975;-61
2022/09/06 10:21:06;;;;;;;1.75;0.40;;;;;;;17.10;52.40;100661.36;1702503;83;21246;-61
2022/09/06 10:24:10;;;;;;;0.30;0.30;;;;;;;17.03;52.02;100652.97;1695452;82;20940;-61
2022/09/06 10:26:50;;;;;;;0.82;0.65;;;;;;;17.04;51.49;100652.02;1661852;85;20969;-61
2022/09/06 10:29:24;;;;;;;4.90;1.82;;;;;;;17.04;51.80;100653.34;1653813;85;20942;-60
2022/09/06 10:32:35;;;;;;;0.90;0.62;;;;;;;17.07;51.75;100651.84;1638658;85;21198;-60
2022/09/06 10:35:24;;;;;;;4.15;0.72;;;;;;;17.16;51.90;100656.55;1648000;85;21186;-59
2022/09/06 10:38:16;;;;;;;2.27;0.40;;;;;;;17.37;51.61;100653.59;1652168;85;20944;-60
2022/09/06 10:41:06;;;;;;;1.07;0.50;;;;;;;17.34;51.29;100654.62;1606254;88;21133;-59
2022/09/06 10:43:54;;;;;;;3.90;0.50;;;;;;;17.41;51.19;100653.28;1603730;88;21046;-59
2022/09/06 10:46:25;;;;;;;4.28;0.30;;;;;;;17.47;51.30;100648.10;1603340;88;21023;-59
2022/09/06 10:48:52;;;;;;;0.30;0.30;;;;;;;17.66;51.11;100643.86;1605566;88;21171;-60
2022/09/06 10:51:38;;;;;;;2.60;0.30;;;;;;;17.82;51.17;100641.16;1605418;88;20963;-59
2022/09/06 10:54:13;;;;;;;0.60;0.33;;;;;;;17.97;50.67;100645.45;1606179;87;21022;-60
2022/09/06 10:56:57;;;;;;;1.77;0.20;;;;;;;18.02;50.32;100640.73;1601882;89;20969;-60
2022/09/06 10:59:32;;;;;;;0.60;0.50;;;;;;;17.95;49.91;100647.34;1602790;87;21159;-60
2022/09/06 11:02:36;;;;;;;1.57;0.23;;;;;;;17.74;49.20;100638.11;1608337;88;21109;-60
2022/09/06 11:05:07;;;;;;;0.80;0.33;;;;;;;17.53;49.51;100647.75;1606274;88;20976;-59
2022/09/06 11:07:43;;;;;;;0.65;0.45;;;;;;;17.59;49.42;100639.45;1609431;88;20946;-60
2022/09/06 11:10:32;;;;;;;0.33;0.30;;;;;;;17.49;49.28;100639.63;1608043;89;21069;-60
2022/09/06 11:13:15;;;;;;;1.25;0.62;;;;;;;17.62;49.39;100635.29;1606974;87;20989;-59
2022/09/06 11:15:46;;;;;;;4.25;0.40;;;;;;;17.61;48.95;100636.21;1562797;90;21265;-60
2022/09/06 11:18:43;;;;;;;1.50;0.50;;;;;;;17.59;48.31;100627.56;1582078;89;21020;-60
2022/09/06 11:21:35;;;;;;;2.45;0.50;;;;;;;17.52;48.45;100635.47;1589581;89;21015;-59
2022/09/06 11:24:30;;;;;;;1.17;0.40;;;;;;;17.38;48.12;100632.84;1621344;87;21003;-59
2022/09/06 11:27:39;;;;;;;0.70;0.30;;;;;;;17.16;47.71;100634.13;1617366;87;21528;-60
2022/09/06 11:30:05;;;;;;;0.28;0.20;;;;;;;17.17;48.44;100621.33;1606043;87;21082;-59
2022/09/06 11:32:47;;;;;;;1.42;0.40;;;;;;;17.14;48.12;100620.20;1630999;86;21133;-59
2022/09/06 11:35:33;;;;;;;0.37;0.20;;;;;;;17.19;47.98;100623.37;1634917;86;20965;-59
2022/09/06 11:38:08;;;;;;;1.15;0.40;;;;;;;17.29;47.76;100625.48;1637904;86;21606;-59
2022/09/06 11:40:41;;;;;;;0.40;0.30;;;;;;;17.25;47.38;100618.20;1612659;87;20975;-59
2022/09/06 11:43:12;;;;;;;0.80;0.35;;;;;;;17.20;47.16;100611.91;1627610;87;21542;-59
2022/09/06 11:45:51;;;;;;;0.95;0.37;;;;;;;17.18;46.80;100609.82;1617982;87;20950;-59
2022/09/06 11:48:34;;;;;;;1.95;0.88;;;;;;;17.22;47.33;100606.07;1620610;86;20988;-59
2022/09/06 11:51:09;;;;;;;0.23;0.20;;;;;;;17.30;46.89;100604.73;1622620;86;21105;-59
2022/09/06 11:53:56;;;;;;;0.90;0.30;;;;;;;17.20;46.63;100600.03;1677388;84;21010;-60
2022/09/06 11:56:35;;;;;;;0.93;0.20;;;;;;;17.17;46.44;100619.17;1689298;83;21243;-60